createdAt,value
2023-09-30T00:01:59.574Z,68.61
2023-09-30T00:04:26.003Z,68.70
2023-09-30T00:06:52.449Z,68.38
2023-09-30T00:09:18.821Z,68.24
2023-09-30T00:11:45.306Z,67.85
2023-09-30T00:14:11.919Z,69.09
2023-09-30T00:16:38.535Z,69.61
2023-09-30T00:19:04.866Z,68.00
2023-09-30T00:21:31.491Z,67.75
2023-09-30T00:23:58.031Z,68.04
2023-09-30T00:26:24.413Z,68.10
2023-09-30T00:28:50.836Z,68.33
2023-09-30T00:31:17.304Z,68.72
2023-09-30T00:33:43.726Z,68.37
2023-09-30T00:36:10.334Z,69.00
2023-09-30T00:38:36.586Z,68.93
2023-09-30T00:41:02.994Z,68.09
2023-09-30T00:43:29.402Z,68.06
2023-09-30T00:45:55.917Z,68.29
2023-09-30T00:48:22.434Z,68.29
2023-09-30T00:50:48.852Z,67.75
2023-09-30T00:53:15.276Z,68.44
2023-09-30T00:55:41.702Z,68.02
2023-09-30T00:58:08.065Z,67.58
2023-09-30T01:00:34.624Z,67.74
2023-09-30T01:03:01.018Z,69.07
2023-09-30T01:05:27.391Z,69.24
2023-09-30T01:07:53.874Z,68.82
2023-09-30T01:10:20.318Z,69.63
2023-09-30T01:12:46.729Z,69.16
2023-09-30T01:15:13.208Z,69.59
2023-09-30T01:17:39.570Z,70.04
2023-09-30T01:20:06.050Z,70.54
2023-09-30T01:22:32.433Z,70.04
2023-09-30T01:24:58.819Z,69.95
2023-09-30T01:27:25.249Z,69.72
2023-09-30T01:29:51.674Z,69.53
2023-09-30T01:32:18.098Z,69.82
2023-09-30T01:34:44.542Z,69.51
2023-09-30T01:37:10.916Z,69.25
2023-09-30T01:39:37.461Z,70.32
2023-09-30T01:42:03.784Z,70.31
2023-09-30T01:44:30.283Z,69.87
2023-09-30T01:46:56.670Z,69.58
2023-09-30T01:49:23.139Z,69.65
2023-09-30T01:51:49.497Z,69.25
2023-09-30T01:54:16.088Z,69.72
2023-09-30T01:56:42.361Z,69.79
2023-09-30T01:59:08.808Z,69.57
2023-09-30T02:01:35.320Z,69.35
2023-09-30T02:04:02.059Z,69.91
2023-09-30T02:06:28.077Z,69.96
2023-09-30T02:08:54.516Z,70.65
2023-09-30T02:11:20.926Z,71.75
2023-09-30T02:13:47.358Z,70.92
2023-09-30T02:16:13.851Z,70.19
2023-09-30T02:18:40.443Z,70.17
2023-09-30T02:21:06.804Z,70.18
2023-09-30T02:23:33.204Z,70.17
2023-09-30T02:25:59.627Z,69.70
2023-09-30T02:28:26.068Z,70.21
2023-09-30T02:30:52.469Z,70.12
2023-09-30T02:33:19.218Z,70.26
2023-09-30T02:35:45.564Z,70.60
2023-09-30T02:38:12.002Z,70.17
2023-09-30T02:40:38.439Z,70.45
2023-09-30T02:43:04.875Z,71.25
2023-09-30T02:45:31.305Z,71.95
2023-09-30T02:47:57.769Z,71.44
2023-09-30T02:50:24.090Z,71.03
2023-09-30T02:52:50.569Z,71.45
2023-09-30T02:55:16.934Z,71.25
2023-09-30T02:57:43.422Z,71.30
2023-09-30T03:00:09.804Z,70.94
2023-09-30T03:02:36.270Z,70.97
2023-09-30T03:05:02.664Z,71.00
2023-09-30T03:07:29.053Z,70.79
2023-09-30T03:09:55.445Z,71.12
2023-09-30T03:12:21.886Z,70.78
2023-09-30T03:14:48.302Z,70.58
2023-09-30T03:17:14.866Z,70.72
2023-09-30T03:19:41.179Z,70.76
2023-09-30T03:22:07.703Z,70.48
2023-09-30T03:24:34.165Z,70.94
2023-09-30T03:27:00.568Z,70.86
2023-09-30T03:29:26.990Z,70.99
2023-09-30T03:31:53.419Z,70.89
2023-09-30T03:34:19.932Z,71.01
2023-09-30T03:36:46.365Z,70.65
2023-09-30T03:39:12.717Z,70.84
2023-09-30T03:41:39.152Z,71.37
2023-09-30T03:44:05.685Z,72.08
2023-09-30T03:46:32.295Z,71.54
2023-09-30T03:48:58.747Z,72.54
2023-09-30T03:51:25.147Z,72.92
2023-09-30T03:53:51.436Z,73.96
2023-09-30T03:56:17.847Z,74.19
2023-09-30T03:58:44.251Z,73.74
2023-09-30T04:01:10.789Z,74.51
2023-09-30T04:03:37.278Z,74.03
2023-09-30T04:06:03.592Z,74.10
2023-09-30T04:08:29.929Z,74.52
2023-09-30T04:10:56.353Z,73.65
2023-09-30T04:13:22.781Z,72.99
2023-09-30T04:15:50.173Z,74.18
2023-09-30T04:18:15.762Z,73.24
2023-09-30T04:20:42.110Z,73.29
2023-09-30T04:23:08.518Z,73.17
2023-09-30T04:25:34.941Z,73.93
2023-09-30T04:28:01.304Z,74.79
2023-09-30T04:30:27.867Z,75.11
2023-09-30T04:32:54.294Z,75.19
2023-09-30T04:35:20.688Z,74.95
2023-09-30T04:37:47.068Z,75.05
2023-09-30T04:40:13.548Z,75.63
2023-09-30T04:42:40.018Z,75.28
2023-09-30T04:45:06.410Z,74.74
2023-09-30T04:47:32.910Z,74.07
2023-09-30T04:49:59.272Z,73.47
2023-09-30T04:52:25.633Z,73.04
2023-09-30T04:54:52.179Z,72.60
2023-09-30T04:57:18.515Z,72.11
2023-09-30T04:59:45.020Z,71.55
2023-09-30T05:02:11.401Z,70.78
2023-09-30T05:04:37.935Z,70.85
2023-09-30T05:07:04.296Z,70.70
2023-09-30T05:09:30.867Z,70.06
2023-09-30T05:11:57.242Z,69.12
2023-09-30T05:14:23.910Z,68.78
2023-09-30T05:16:50.434Z,68.23
2023-09-30T05:19:16.743Z,67.41
2023-09-30T05:21:43.166Z,67.05
2023-09-30T05:24:09.550Z,66.55
2023-09-30T05:26:35.916Z,65.33
2023-09-30T05:29:02.407Z,65.22
2023-09-30T05:31:31.161Z,64.27
2023-09-30T05:33:55.344Z,64.07
2023-09-30T05:36:24.078Z,63.54
2023-09-30T05:38:50.499Z,63.34
2023-09-30T05:41:16.947Z,62.34
2023-09-30T05:43:43.365Z,61.59
2023-09-30T05:46:09.860Z,61.11
2023-09-30T05:48:36.278Z,61.00
2023-09-30T05:51:02.674Z,60.39
2023-09-30T05:53:29.100Z,59.14
2023-09-30T05:55:55.533Z,59.13
2023-09-30T05:58:22.080Z,59.15
2023-09-30T06:00:48.600Z,59.10
2023-09-30T06:03:15.063Z,58.48
2023-09-30T06:05:41.478Z,57.23
2023-09-30T06:08:07.900Z,57.17
2023-09-30T06:10:34.342Z,56.01
2023-09-30T06:13:00.980Z,54.64
2023-09-30T06:15:27.960Z,55.07
2023-09-30T06:17:53.765Z,54.77
2023-09-30T06:20:20.142Z,54.54
2023-09-30T06:22:46.616Z,54.08
2023-09-30T06:25:13.078Z,53.28
2023-09-30T06:27:39.492Z,53.09
2023-09-30T06:30:05.828Z,52.29
2023-09-30T06:32:32.318Z,52.57
2023-09-30T06:34:58.685Z,52.07
2023-09-30T06:37:25.211Z,51.58
2023-09-30T06:39:51.644Z,51.37
2023-09-30T06:42:18.215Z,50.76
2023-09-30T06:44:44.604Z,50.27
2023-09-30T06:47:11.148Z,49.77
2023-09-30T06:49:37.616Z,48.47
2023-09-30T06:52:04.115Z,48.18
2023-09-30T06:54:30.476Z,48.42
2023-09-30T06:56:56.911Z,47.93
2023-09-30T06:59:23.408Z,47.53
2023-09-30T07:01:50.336Z,47.22
2023-09-30T07:04:16.903Z,47.31
2023-09-30T07:06:43.318Z,46.95
2023-09-30T07:09:09.757Z,46.80
2023-09-30T07:11:36.298Z,46.33
2023-09-30T07:14:02.825Z,45.30
2023-09-30T07:16:29.520Z,45.74
2023-09-30T07:18:56.011Z,45.06
2023-09-30T07:21:22.311Z,45.64
2023-09-30T07:23:48.919Z,45.57
2023-09-30T07:26:15.424Z,44.60
2023-09-30T07:28:41.833Z,43.32
2023-09-30T07:31:08.514Z,43.12
2023-09-30T07:33:34.768Z,43.31
2023-09-30T07:36:01.245Z,43.42
2023-09-30T07:38:27.616Z,42.73
2023-09-30T07:40:54.116Z,41.53
2023-09-30T07:43:20.500Z,41.31
2023-09-30T07:45:47.056Z,40.71
2023-09-30T07:48:13.481Z,40.19
2023-09-30T07:50:39.833Z,39.73
2023-09-30T07:53:06.266Z,39.60
2023-09-30T07:55:33.036Z,39.43
2023-09-30T07:57:59.403Z,39.27
2023-09-30T08:00:25.918Z,39.04
2023-09-30T08:02:52.431Z,38.27
2023-09-30T08:05:18.861Z,38.44
2023-09-30T08:07:45.213Z,37.39
2023-09-30T08:10:11.702Z,36.79
2023-09-30T08:12:38.165Z,36.63
2023-09-30T08:15:05.034Z,37.05
2023-09-30T08:17:31.009Z,37.07
2023-09-30T08:19:57.456Z,37.18
2023-09-30T08:22:23.894Z,36.35
2023-09-30T08:24:50.381Z,35.90
2023-09-30T08:27:16.851Z,34.87
2023-09-30T08:29:43.299Z,35.58
2023-09-30T08:32:09.929Z,36.00
2023-09-30T08:34:36.349Z,35.01
2023-09-30T08:37:02.707Z,34.19
2023-09-30T08:39:29.386Z,33.65
2023-09-30T08:41:55.690Z,33.54
2023-09-30T08:44:22.186Z,34.55
2023-09-30T08:46:48.661Z,34.71
2023-09-30T08:49:14.995Z,33.57
2023-09-30T08:51:41.452Z,33.37
2023-09-30T08:54:07.818Z,32.78
2023-09-30T08:56:34.258Z,31.95
2023-09-30T08:59:00.680Z,31.16
2023-09-30T09:01:27.102Z,30.18
2023-09-30T09:03:53.706Z,29.80
2023-09-30T09:06:19.942Z,29.42
2023-09-30T09:08:46.416Z,28.96
2023-09-30T09:11:12.796Z,28.80
2023-09-30T09:13:39.266Z,28.21
2023-09-30T09:16:05.850Z,28.19
2023-09-30T09:18:32.201Z,28.55
2023-09-30T09:20:58.519Z,28.12
2023-09-30T09:23:24.976Z,28.20
2023-09-30T09:25:51.352Z,28.33
2023-09-30T09:28:17.761Z,28.05
2023-09-30T09:30:44.133Z,28.00
2023-09-30T09:33:10.649Z,27.83
2023-09-30T09:35:37.074Z,28.27
2023-09-30T09:38:03.498Z,27.49
2023-09-30T09:40:30.057Z,27.87
2023-09-30T09:42:56.460Z,27.82
2023-09-30T09:45:22.882Z,28.29
2023-09-30T09:47:49.361Z,27.84
2023-09-30T09:50:15.997Z,27.18
2023-09-30T09:52:42.389Z,26.96
2023-09-30T09:55:08.856Z,27.36
2023-09-30T09:57:36.287Z,27.04
2023-09-30T10:00:02.760Z,26.31
2023-09-30T10:02:29.605Z,25.99
2023-09-30T10:04:55.859Z,26.77
2023-09-30T10:07:22.340Z,26.49
2023-09-30T10:09:48.804Z,26.35
2023-09-30T10:12:15.182Z,26.50
2023-09-30T10:14:41.652Z,26.04
2023-09-30T10:17:08.035Z,25.50
2023-09-30T10:19:34.649Z,25.08
2023-09-30T10:22:01.320Z,24.97
2023-09-30T10:24:27.713Z,25.23
2023-09-30T10:26:54.172Z,24.37
2023-09-30T10:29:20.639Z,24.89
2023-09-30T10:31:47.103Z,24.59
2023-09-30T10:34:13.507Z,25.16
2023-09-30T10:36:39.906Z,25.08
2023-09-30T10:39:06.454Z,24.74
2023-09-30T10:41:32.915Z,25.48
2023-09-30T10:43:59.306Z,24.77
2023-09-30T10:46:25.729Z,24.78
2023-09-30T10:48:52.425Z,24.36
2023-09-30T10:51:18.749Z,24.43
2023-09-30T10:53:45.297Z,24.07
2023-09-30T10:56:11.714Z,24.97
2023-09-30T10:58:38.265Z,24.41
2023-09-30T11:01:04.777Z,24.08
2023-09-30T11:03:31.275Z,23.52
2023-09-30T11:06:11.704Z,23.73
2023-09-30T11:08:24.235Z,23.88
2023-09-30T11:10:50.589Z,23.36
2023-09-30T11:13:17.075Z,23.23
2023-09-30T11:15:43.502Z,24.70
2023-09-30T11:18:09.919Z,25.78
2023-09-30T11:20:36.414Z,24.68
2023-09-30T11:23:02.889Z,24.87
2023-09-30T11:25:29.331Z,24.74
2023-09-30T11:27:55.800Z,25.09
2023-09-30T11:30:22.283Z,25.64
2023-09-30T11:32:48.810Z,25.35
2023-09-30T11:35:15.160Z,26.29
2023-09-30T11:37:41.624Z,26.15
2023-09-30T11:40:08.340Z,26.81
2023-09-30T11:42:34.712Z,26.30
2023-09-30T11:45:01.094Z,26.48
2023-09-30T11:47:27.618Z,26.57
2023-09-30T11:49:54.173Z,26.88
2023-09-30T11:52:20.717Z,26.86
2023-09-30T11:54:47.140Z,26.79
2023-09-30T11:57:13.682Z,26.33
2023-09-30T11:59:40.327Z,26.64
2023-09-30T12:02:13.665Z,26.10
2023-09-30T12:04:33.350Z,26.14
2023-09-30T12:06:59.736Z,25.85
2023-09-30T12:09:26.193Z,24.66
2023-09-30T12:11:52.733Z,25.09
2023-09-30T12:14:19.107Z,24.99
2023-09-30T12:16:45.692Z,25.49
2023-09-30T12:19:12.318Z,25.78
2023-09-30T12:21:38.747Z,26.13
2023-09-30T12:24:05.159Z,26.36
2023-09-30T12:26:31.591Z,25.33
2023-09-30T12:28:58.229Z,25.71
2023-09-30T12:31:24.574Z,25.36
2023-09-30T12:33:50.868Z,25.12
2023-09-30T12:36:17.250Z,25.37
2023-09-30T12:38:43.772Z,25.20
2023-09-30T12:41:10.220Z,25.19
2023-09-30T12:43:36.939Z,24.87
2023-09-30T12:46:03.669Z,24.87
2023-09-30T12:48:29.840Z,25.20
2023-09-30T12:50:56.231Z,25.37
2023-09-30T12:53:22.593Z,25.00
2023-09-30T12:55:49.098Z,25.05
2023-09-30T12:58:15.615Z,25.44
2023-09-30T13:00:42.068Z,26.08
2023-09-30T13:03:08.446Z,27.13
2023-09-30T13:05:34.871Z,27.54
2023-09-30T13:08:01.232Z,28.37
2023-09-30T13:10:27.703Z,29.41
2023-09-30T13:12:54.114Z,29.98
2023-09-30T13:15:20.567Z,30.29
2023-09-30T13:17:47.025Z,30.03
2023-09-30T13:20:13.516Z,29.69
2023-09-30T13:22:39.903Z,29.59
2023-09-30T13:25:06.339Z,30.49
2023-09-30T13:27:32.707Z,30.95
2023-09-30T13:29:59.153Z,30.77
2023-09-30T13:32:25.522Z,30.52
2023-09-30T13:34:52.050Z,30.52
2023-09-30T13:37:18.454Z,30.60
2023-09-30T13:39:45.021Z,30.55
2023-09-30T13:42:11.420Z,30.44
2023-09-30T13:44:38.061Z,30.49
2023-09-30T13:47:04.478Z,31.01
2023-09-30T13:49:30.917Z,30.86
2023-09-30T13:51:57.330Z,31.04
2023-09-30T13:54:23.800Z,30.78
2023-09-30T13:56:50.153Z,30.94
2023-09-30T13:59:16.656Z,31.32
2023-09-30T14:01:43.109Z,31.35
2023-09-30T14:04:09.570Z,31.56
2023-09-30T14:06:35.905Z,31.36
2023-09-30T14:09:02.400Z,31.14
2023-09-30T14:11:28.923Z,31.38
2023-09-30T14:13:55.368Z,30.96
2023-09-30T14:16:21.828Z,31.29
2023-09-30T14:18:48.268Z,31.30
2023-09-30T14:21:14.829Z,31.59
2023-09-30T14:23:41.310Z,31.76
2023-09-30T14:26:07.680Z,31.83
2023-09-30T14:28:34.083Z,32.35
2023-09-30T14:31:00.591Z,32.17
2023-09-30T14:33:26.938Z,32.29
2023-09-30T14:35:53.322Z,32.26
2023-09-30T14:38:19.801Z,32.35
2023-09-30T14:40:46.152Z,31.88
2023-09-30T14:43:12.600Z,32.28
2023-09-30T14:45:39.019Z,32.52
2023-09-30T14:48:05.396Z,32.50
2023-09-30T14:50:31.840Z,32.33
2023-09-30T14:52:58.397Z,32.18
2023-09-30T14:55:24.813Z,32.45
2023-09-30T14:57:51.273Z,32.30
2023-09-30T15:00:17.676Z,32.27
2023-09-30T15:02:44.148Z,32.35
2023-09-30T15:05:10.865Z,32.87
2023-09-30T15:07:37.410Z,32.93
2023-09-30T15:10:03.914Z,32.91
2023-09-30T15:12:30.275Z,33.31
2023-09-30T15:14:56.634Z,33.19
2023-09-30T15:17:23.134Z,33.39
2023-09-30T15:19:49.569Z,33.62
2023-09-30T15:22:16.154Z,33.38
2023-09-30T15:24:42.513Z,33.61
2023-09-30T15:27:08.970Z,33.91
2023-09-30T15:29:35.315Z,34.12
2023-09-30T15:32:01.781Z,34.17
2023-09-30T15:34:28.161Z,34.55
2023-09-30T15:36:54.664Z,34.54
2023-09-30T15:39:20.960Z,34.72
2023-09-30T15:41:47.457Z,35.06
2023-09-30T15:44:13.812Z,35.06
2023-09-30T15:46:40.279Z,35.53
2023-09-30T15:49:06.697Z,35.29
2023-09-30T15:51:33.112Z,35.74
2023-09-30T15:53:59.627Z,35.60
2023-09-30T15:56:25.936Z,35.78
2023-09-30T15:58:52.284Z,35.94
2023-09-30T16:01:18.788Z,36.59
2023-09-30T16:03:45.189Z,36.43
2023-09-30T16:06:11.608Z,36.68
2023-09-30T16:08:37.940Z,37.26
2023-09-30T16:11:04.449Z,37.29
2023-09-30T16:13:30.826Z,38.03
2023-09-30T16:15:57.397Z,38.16
2023-09-30T16:18:23.764Z,38.26
2023-09-30T16:20:50.300Z,39.46
2023-09-30T16:23:16.697Z,38.84
2023-09-30T16:25:43.323Z,39.28
2023-09-30T16:28:09.937Z,40.30
2023-09-30T16:30:36.553Z,39.48
2023-09-30T16:33:02.728Z,39.32
2023-09-30T16:35:29.189Z,40.16
2023-09-30T16:37:55.629Z,39.95
2023-09-30T16:40:22.172Z,40.06
2023-09-30T16:42:48.724Z,39.86
2023-09-30T16:45:15.123Z,40.20
2023-09-30T16:47:41.529Z,40.27
2023-09-30T16:50:07.998Z,40.45
2023-09-30T16:52:34.460Z,40.49
2023-09-30T16:55:01.301Z,40.81
2023-09-30T16:57:27.303Z,41.41
2023-09-30T16:59:53.839Z,41.38
2023-09-30T17:02:20.193Z,41.74
2023-09-30T17:04:46.596Z,41.76
2023-09-30T17:07:13.241Z,42.13
2023-09-30T17:09:40.051Z,41.90
2023-09-30T17:12:06.522Z,42.40
2023-09-30T17:14:32.972Z,42.86
2023-09-30T17:16:59.358Z,43.05
2023-09-30T17:19:25.719Z,43.13
2023-09-30T17:21:52.177Z,43.68
2023-09-30T17:24:18.690Z,43.71
2023-09-30T17:26:45.396Z,44.34
2023-09-30T17:29:11.866Z,44.25
2023-09-30T17:31:38.484Z,44.59
2023-09-30T17:34:04.749Z,45.22
2023-09-30T17:36:32.391Z,45.07
2023-09-30T17:38:58.830Z,45.13
2023-09-30T17:41:25.269Z,46.22
2023-09-30T17:43:51.792Z,45.66
2023-09-30T17:46:18.280Z,46.18
2023-09-30T17:48:44.730Z,46.26
2023-09-30T17:51:11.071Z,46.77
2023-09-30T17:53:37.680Z,46.52
2023-09-30T17:56:04.029Z,46.76
2023-09-30T17:58:30.466Z,46.90
2023-09-30T18:00:56.829Z,47.13
2023-09-30T18:03:24.396Z,46.78
2023-09-30T18:05:50.820Z,46.25
2023-09-30T18:08:17.346Z,46.50
2023-09-30T18:10:43.774Z,46.88
2023-09-30T18:13:10.615Z,47.29
2023-09-30T18:15:36.975Z,46.70
2023-09-30T18:18:11.973Z,47.53
2023-09-30T18:20:29.914Z,46.79
2023-09-30T18:22:56.515Z,48.14
2023-09-30T18:25:22.981Z,47.63
2023-09-30T18:27:49.419Z,48.16
2023-09-30T18:30:15.839Z,49.08
2023-09-30T18:32:43.461Z,49.12
2023-09-30T18:35:09.959Z,48.82
2023-09-30T18:37:36.400Z,48.49
2023-09-30T18:40:05.260Z,48.80
2023-09-30T18:42:31.730Z,48.95
2023-09-30T18:44:58.137Z,49.14
2023-09-30T18:47:24.572Z,49.25
2023-09-30T18:49:50.951Z,49.56
2023-09-30T18:52:17.695Z,50.07
2023-09-30T18:54:44.042Z,49.72
2023-09-30T18:57:10.407Z,49.99
2023-09-30T18:59:36.769Z,50.04
2023-09-30T19:02:03.259Z,50.18
2023-09-30T19:04:29.594Z,50.64
2023-09-30T19:06:55.997Z,50.55
2023-09-30T19:09:22.315Z,50.76
2023-09-30T19:11:48.823Z,51.20
2023-09-30T19:14:15.322Z,51.27
2023-09-30T19:16:41.639Z,52.06
2023-09-30T19:19:08.010Z,52.28
2023-09-30T19:21:34.441Z,51.79
2023-09-30T19:24:00.877Z,52.37
2023-09-30T19:26:27.299Z,53.39
2023-09-30T19:28:53.687Z,53.45
2023-09-30T19:31:20.195Z,53.79
2023-09-30T19:33:46.593Z,54.36
2023-09-30T19:36:13.158Z,54.52
2023-09-30T19:38:39.530Z,55.29
2023-09-30T19:41:05.913Z,55.76
2023-09-30T19:43:32.304Z,57.40
2023-09-30T19:45:58.770Z,57.62
2023-09-30T19:48:25.064Z,58.01
2023-09-30T19:50:51.516Z,58.73
2023-09-30T19:53:17.972Z,58.19
2023-09-30T19:55:44.508Z,57.90
2023-09-30T19:58:11.149Z,57.03
2023-09-30T20:00:37.493Z,57.74
2023-09-30T20:03:03.934Z,57.10
2023-09-30T20:05:30.255Z,57.75
2023-09-30T20:07:56.792Z,58.46
2023-09-30T20:10:23.155Z,59.12
2023-09-30T20:12:49.763Z,58.57
2023-09-30T20:15:16.087Z,59.27
2023-09-30T20:17:42.659Z,58.96
2023-09-30T20:20:09.125Z,60.14
2023-09-30T20:22:35.565Z,59.51
2023-09-30T20:25:01.941Z,59.90
2023-09-30T20:27:28.427Z,60.33
2023-09-30T20:29:54.857Z,59.36
2023-09-30T20:32:21.308Z,59.53
2023-09-30T20:34:47.718Z,59.64
2023-09-30T20:37:14.203Z,60.48
2023-09-30T20:39:40.694Z,59.95
2023-09-30T20:42:07.013Z,60.41
2023-09-30T20:44:33.369Z,59.93
2023-09-30T20:46:59.906Z,59.80
2023-09-30T20:49:26.409Z,60.25
2023-09-30T20:51:52.791Z,60.10
2023-09-30T20:54:19.113Z,60.28
2023-09-30T20:56:45.573Z,60.09
2023-09-30T20:59:11.864Z,58.71
2023-09-30T21:01:38.447Z,59.51
2023-09-30T21:04:04.744Z,58.64
2023-09-30T21:06:31.253Z,58.68
2023-09-30T21:08:58.033Z,60.35
2023-09-30T21:11:24.127Z,59.60
2023-09-30T21:13:50.503Z,59.87
2023-09-30T21:16:17.028Z,60.21
2023-09-30T21:18:43.348Z,60.03
2023-09-30T21:21:09.758Z,60.13
2023-09-30T21:23:36.147Z,59.98
2023-09-30T21:26:02.631Z,60.18
2023-09-30T21:28:28.972Z,59.68
2023-09-30T21:30:55.635Z,59.37
2023-09-30T21:33:21.918Z,59.50
2023-09-30T21:35:48.357Z,59.18
2023-09-30T21:38:14.733Z,59.23
2023-09-30T21:40:41.215Z,59.48
2023-09-30T21:43:07.670Z,59.49
2023-09-30T21:45:34.076Z,59.17
2023-09-30T21:48:00.447Z,59.74
2023-09-30T21:50:26.865Z,59.88
2023-09-30T21:52:53.236Z,60.51
2023-09-30T21:55:20.174Z,60.65
2023-09-30T21:57:46.651Z,61.05
2023-09-30T22:00:13.002Z,61.95
2023-09-30T22:02:39.514Z,61.89
2023-09-30T22:05:05.959Z,62.84
2023-09-30T22:07:32.385Z,63.15
2023-09-30T22:09:58.887Z,63.13
2023-09-30T22:12:25.218Z,62.49
2023-09-30T22:14:51.729Z,62.73
2023-09-30T22:17:18.217Z,63.17
2023-09-30T22:19:44.672Z,63.18
2023-09-30T22:22:11.110Z,62.55
2023-09-30T22:24:37.469Z,63.65
2023-09-30T22:27:03.964Z,63.93
2023-09-30T22:29:30.353Z,64.60
2023-09-30T22:31:56.777Z,64.49
2023-09-30T22:34:23.170Z,64.80
2023-09-30T22:36:49.595Z,64.53
2023-09-30T22:39:17.961Z,64.41
2023-09-30T22:41:42.419Z,65.12
2023-09-30T22:44:08.880Z,65.04
2023-09-30T22:46:35.367Z,64.51
2023-09-30T22:49:01.993Z,64.44
2023-09-30T22:51:28.238Z,64.92
2023-09-30T22:53:54.726Z,65.45
2023-09-30T22:56:21.113Z,66.84
2023-09-30T22:58:47.584Z,66.27
2023-09-30T23:01:14.295Z,65.68
2023-09-30T23:03:40.905Z,66.45
2023-09-30T23:06:07.289Z,65.78
2023-09-30T23:08:33.721Z,65.80
2023-09-30T23:11:00.164Z,66.35
2023-09-30T23:13:26.572Z,65.95
2023-09-30T23:15:53.096Z,66.35
2023-09-30T23:18:19.703Z,66.87
2023-09-30T23:20:45.904Z,67.49
2023-09-30T23:23:12.487Z,68.09
2023-09-30T23:25:38.832Z,68.62
2023-09-30T23:28:05.325Z,68.23
2023-09-30T23:30:31.647Z,68.22
2023-09-30T23:32:58.775Z,68.24
2023-09-30T23:35:24.541Z,68.47
2023-09-30T23:37:50.972Z,68.93
2023-09-30T23:40:17.461Z,69.24
2023-09-30T23:42:43.886Z,69.15
2023-09-30T23:45:10.232Z,69.30
2023-09-30T23:47:48.918Z,69.67
2023-09-30T23:50:03.198Z,69.80
2023-09-30T23:52:29.632Z,69.94
2023-09-30T23:54:56.108Z,70.09
2023-09-30T23:57:22.483Z,69.42
2023-09-30T23:59:48.926Z,68.93
